createdAt,value
2018-12-05T00:02:03.212Z,23.03
2018-12-05T00:04:33.611Z,21.07
2018-12-05T00:07:04.243Z,21.37
2018-12-05T00:09:34.619Z,23.03
2018-12-05T00:12:05.181Z,22.53
2018-12-05T00:14:35.610Z,20.77
2018-12-05T00:17:06.092Z,21.03
2018-12-05T00:19:36.654Z,20.40
2018-12-05T00:22:07.123Z,21.27
2018-12-05T00:24:37.620Z,22.10
2018-12-05T00:27:08.168Z,20.73
2018-12-05T00:29:38.649Z,19.00
2018-12-05T00:32:11.373Z,20.40
2018-12-05T00:34:41.870Z,20.13
2018-12-05T00:37:12.272Z,21.33
2018-12-05T00:39:42.751Z,19.00
2018-12-05T00:42:13.208Z,19.50
2018-12-05T00:44:44.705Z,18.60
2018-12-05T00:47:15.153Z,20.23
2018-12-05T00:49:45.652Z,19.83
2018-12-05T00:52:17.403Z,20.23
2018-12-05T00:54:47.868Z,20.50
2018-12-05T00:57:18.330Z,18.30
2018-12-05T00:59:49.385Z,18.50
2018-12-05T01:02:19.852Z,20.00
2018-12-05T01:04:50.301Z,19.77
2018-12-05T01:07:20.920Z,19.30
2018-12-05T01:09:51.320Z,20.20
2018-12-05T01:12:21.919Z,18.63
2018-12-05T01:14:52.341Z,20.93
2018-12-05T01:17:24.165Z,20.57
2018-12-05T01:19:54.633Z,20.63
2018-12-05T01:22:25.058Z,23.70
2018-12-05T01:24:55.527Z,23.83
2018-12-05T01:27:26.035Z,22.20
2018-12-05T01:29:56.454Z,23.37
2018-12-05T01:32:27.069Z,24.20
2018-12-05T01:34:57.512Z,23.87
2018-12-05T01:37:28.000Z,23.13
2018-12-05T01:39:58.468Z,24.70
2018-12-05T01:42:29.162Z,23.37
2018-12-05T01:44:59.712Z,25.77
2018-12-05T01:47:30.228Z,25.37
2018-12-05T01:50:00.738Z,24.27
2018-12-05T01:52:32.159Z,26.80
2018-12-05T01:55:02.609Z,25.83
2018-12-05T01:57:33.113Z,24.90
2018-12-05T02:00:03.666Z,27.60
2018-12-05T02:02:34.102Z,27.07
2018-12-05T02:05:04.854Z,27.27
2018-12-05T02:07:35.294Z,27.80
2018-12-05T02:10:06.174Z,27.43
2018-12-05T02:12:36.580Z,28.43
2018-12-05T02:15:07.495Z,28.23
2018-12-05T02:17:37.988Z,28.77
2018-12-05T02:20:08.688Z,28.97
2018-12-05T02:22:39.159Z,28.63
2018-12-05T02:25:09.716Z,29.63
2018-12-05T02:27:40.262Z,31.07
2018-12-05T02:30:10.750Z,30.87
2018-12-05T02:32:43.153Z,31.10
2018-12-05T02:35:13.612Z,31.73
2018-12-05T02:37:44.041Z,31.23
2018-12-05T02:40:14.848Z,32.87
2018-12-05T02:42:45.291Z,30.63
2018-12-05T02:45:15.842Z,32.63
2018-12-05T02:47:46.362Z,32.50
2018-12-05T02:50:16.907Z,32.30
2018-12-05T02:52:47.399Z,33.27
2018-12-05T02:55:17.893Z,30.43
2018-12-05T02:57:48.377Z,30.63
2018-12-05T03:00:18.822Z,32.70
2018-12-05T03:02:49.340Z,30.90
2018-12-05T03:05:19.775Z,32.07
2018-12-05T03:07:50.326Z,32.60
2018-12-05T03:10:20.746Z,31.67
2018-12-05T03:12:54.981Z,32.00
2018-12-05T03:15:25.500Z,31.90
2018-12-05T03:17:56.041Z,31.40
2018-12-05T03:20:26.519Z,29.00
2018-12-05T03:22:56.922Z,30.13
2018-12-05T03:25:28.565Z,30.50
2018-12-05T03:27:59.060Z,31.57
2018-12-05T03:30:29.587Z,32.10
2018-12-05T03:33:00.128Z,32.33
2018-12-05T03:35:35.438Z,30.57
2018-12-05T03:38:05.885Z,31.93
2018-12-05T03:40:36.509Z,30.40
2018-12-05T03:43:07.075Z,31.50
2018-12-05T03:45:37.574Z,29.00
2018-12-05T03:48:08.090Z,30.37
2018-12-05T03:50:38.456Z,31.97
2018-12-05T03:53:09.333Z,34.03
2018-12-05T03:55:39.773Z,34.67
2018-12-05T03:58:10.259Z,33.20
2018-12-05T04:00:40.787Z,32.50
2018-12-05T04:03:11.231Z,33.40
2018-12-05T04:05:41.705Z,34.80
2018-12-05T04:08:12.245Z,34.07
2018-12-05T04:10:42.728Z,34.90
2018-12-05T04:13:21.081Z,40.10
2018-12-05T04:15:51.594Z,37.37
2018-12-05T04:18:22.021Z,40.80
2018-12-05T04:20:52.604Z,40.67
2018-12-05T04:23:23.002Z,40.90
2018-12-05T04:25:53.512Z,43.30
2018-12-05T04:28:23.981Z,43.87
2018-12-05T04:30:54.460Z,42.90
2018-12-05T04:33:26.971Z,44.80
2018-12-05T04:35:57.429Z,44.87
2018-12-05T04:38:27.984Z,45.07
2018-12-05T04:40:58.555Z,47.27
2018-12-05T04:43:29.037Z,46.13
2018-12-05T04:45:59.563Z,46.23
2018-12-05T04:48:30.973Z,44.33
2018-12-05T04:51:01.479Z,48.50
2018-12-05T04:53:31.992Z,45.40
2018-12-05T04:56:02.536Z,49.60
2018-12-05T04:58:33.063Z,49.50
2018-12-05T05:01:03.490Z,51.73
2018-12-05T05:03:33.953Z,51.47
2018-12-05T05:06:04.457Z,48.70
2018-12-05T05:08:34.984Z,53.07
2018-12-05T05:11:05.406Z,52.80
2018-12-05T05:13:35.895Z,49.03
2018-12-05T05:16:06.465Z,51.87
2018-12-05T05:18:36.986Z,51.73
2018-12-05T05:21:07.503Z,51.00
2018-12-05T05:23:37.966Z,57.00
2018-12-05T05:26:08.457Z,52.73
2018-12-05T05:28:38.944Z,55.10
2018-12-05T05:31:09.505Z,56.57
2018-12-05T05:33:40.177Z,56.10
2018-12-05T05:36:11.818Z,56.93
2018-12-05T05:38:43.224Z,59.60
2018-12-05T05:41:13.789Z,60.67
2018-12-05T05:43:44.281Z,61.56
2018-12-05T05:52:15.729Z,65.17
2018-12-05T05:54:46.240Z,61.77
2018-12-05T05:57:16.831Z,60.50
2018-12-05T05:59:47.305Z,63.50
2018-12-05T06:02:17.869Z,65.90
2018-12-05T06:04:48.390Z,64.80
2018-12-05T06:07:18.918Z,67.03
2018-12-05T06:09:49.593Z,63.17
2018-12-05T06:12:20.067Z,65.80
2018-12-05T06:14:50.588Z,63.73
2018-12-05T06:17:21.049Z,60.33
2018-12-05T06:19:51.435Z,64.30
2018-12-05T06:22:21.997Z,57.63
2018-12-05T06:24:52.418Z,58.17
2018-12-05T06:27:22.893Z,55.50
2018-12-05T06:29:54.339Z,57.40
2018-12-05T06:32:24.815Z,53.53
2018-12-05T06:34:55.228Z,55.77
2018-12-05T06:37:25.763Z,61.97
2018-12-05T06:39:56.183Z,59.57
2018-12-05T06:42:26.722Z,58.57
2018-12-05T06:44:57.188Z,55.70
2018-12-05T06:47:27.989Z,52.63
2018-12-05T06:49:58.949Z,54.87
2018-12-05T06:52:29.443Z,53.47
2018-12-05T06:54:59.920Z,51.20
2018-12-05T06:57:30.406Z,46.43
2018-12-05T07:00:02.265Z,43.73
2018-12-05T07:02:32.675Z,41.67
2018-12-05T07:05:03.207Z,45.53
2018-12-05T07:07:33.670Z,41.77
2018-12-05T07:10:05.373Z,42.03
2018-12-05T07:12:35.918Z,39.37
2018-12-05T07:15:06.682Z,36.40
2018-12-05T07:17:37.180Z,39.70
2018-12-05T07:20:09.669Z,36.00
2018-12-05T07:22:40.149Z,36.97
2018-12-05T07:25:10.704Z,37.00
2018-12-05T07:27:41.154Z,36.00
2018-12-05T07:30:12.983Z,32.83
2018-12-05T07:32:43.589Z,32.57
2018-12-05T07:35:14.081Z,31.17
2018-12-05T07:37:44.556Z,32.97
2018-12-05T07:40:15.109Z,32.30
2018-12-05T07:42:45.718Z,31.73
2018-12-05T07:45:16.221Z,29.50
2018-12-05T07:47:46.761Z,30.10
2018-12-05T07:50:17.569Z,31.90
2018-12-05T07:52:48.102Z,30.70
2018-12-05T07:55:18.541Z,33.20
2018-12-05T07:57:48.980Z,32.90
2018-12-05T08:00:19.467Z,32.73
2018-12-05T08:02:50.001Z,36.53
2018-12-05T08:05:20.552Z,31.60
2018-12-05T08:07:51.074Z,31.97
2018-12-05T08:10:21.667Z,35.13
2018-12-05T08:12:52.097Z,34.87
2018-12-05T08:15:22.699Z,34.60
2018-12-05T08:17:53.214Z,29.83
2018-12-05T08:20:23.834Z,30.73
2018-12-05T08:22:54.405Z,28.70
2018-12-05T08:25:24.919Z,29.40
2018-12-05T08:27:55.570Z,27.80
2018-12-05T08:30:26.204Z,29.57
2018-12-05T08:32:56.747Z,29.03
2018-12-05T08:35:27.237Z,26.53
2018-12-05T08:37:57.724Z,24.33
2018-12-05T08:40:28.362Z,24.27
2018-12-05T08:42:58.884Z,24.57
2018-12-05T08:45:29.477Z,22.07
2018-12-05T08:48:00.009Z,23.73
2018-12-05T08:50:31.364Z,24.20
2018-12-05T08:53:01.833Z,21.13
2018-12-05T08:55:38.879Z,24.07
2018-12-05T08:58:09.300Z,21.67
2018-12-05T09:00:39.799Z,23.33
2018-12-05T09:03:10.285Z,22.60
2018-12-05T09:05:40.856Z,22.27
2018-12-05T09:08:12.483Z,22.30
2018-12-05T09:10:43.015Z,21.40
2018-12-05T09:13:14.703Z,21.30
2018-12-05T09:15:45.306Z,21.37
2018-12-05T09:18:15.974Z,19.77
2018-12-05T09:20:46.518Z,18.53
2018-12-05T09:23:17.037Z,19.23
2018-12-05T09:25:47.624Z,20.00
2018-12-05T09:28:18.190Z,20.40
2018-12-05T09:30:49.024Z,20.07
2018-12-05T09:33:19.539Z,20.33
2018-12-05T09:35:50.045Z,20.23
2018-12-05T09:38:20.511Z,21.03
2018-12-05T09:40:51.317Z,20.67
2018-12-05T09:43:21.937Z,16.30
2018-12-05T09:45:52.470Z,17.00
2018-12-05T09:48:22.939Z,17.23
2018-12-05T09:50:53.537Z,17.90
2018-12-05T09:53:24.084Z,19.67
2018-12-05T09:55:54.628Z,19.53
2018-12-05T09:58:25.149Z,18.57
2018-12-05T10:00:55.850Z,20.90
2018-12-05T10:03:26.338Z,20.40
2018-12-05T10:05:56.931Z,19.23
2018-12-05T10:08:27.610Z,20.00
2018-12-05T10:11:01.435Z,20.23
2018-12-05T10:13:33.099Z,21.50
2018-12-05T10:16:03.568Z,21.20
2018-12-05T10:18:34.088Z,22.77
2018-12-05T10:21:04.605Z,23.37
2018-12-05T10:23:35.233Z,24.97
2018-12-05T10:26:05.797Z,24.97
2018-12-05T10:28:36.312Z,25.97
2018-12-05T10:31:06.850Z,28.07
2018-12-05T10:33:37.666Z,27.97
2018-12-05T10:36:08.212Z,27.93
2018-12-05T10:38:38.760Z,29.63
2018-12-05T10:41:09.272Z,28.70
2018-12-05T10:43:39.823Z,28.53
2018-12-05T10:46:10.293Z,29.00
2018-12-05T10:48:40.960Z,27.30
2018-12-05T10:51:11.686Z,29.17
2018-12-05T10:53:42.174Z,28.70
2018-12-05T10:56:12.742Z,30.40
2018-12-05T10:58:43.274Z,30.47
2018-12-05T11:01:18.714Z,29.33
2018-12-05T11:03:49.218Z,30.03
2018-12-05T11:06:24.769Z,30.57
2018-12-05T11:09:00.211Z,33.33
2018-12-05T11:11:37.818Z,30.80
2018-12-05T11:14:13.143Z,31.30
2018-12-05T11:16:50.322Z,33.03
2018-12-05T11:19:25.829Z,37.30
2018-12-05T11:22:01.314Z,35.33
2018-12-05T11:24:34.687Z,36.53
2018-12-05T11:27:05.184Z,38.57
2018-12-05T11:29:35.696Z,37.60
2018-12-05T11:32:06.132Z,36.53
2018-12-05T11:34:36.766Z,37.17
2018-12-05T11:37:07.841Z,35.13
2018-12-05T11:39:38.379Z,34.97
2018-12-05T11:42:08.928Z,35.00
2018-12-05T11:44:39.440Z,34.67
2018-12-05T11:47:09.903Z,34.23
2018-12-05T11:49:40.399Z,33.10
2018-12-05T11:52:11.010Z,35.07
2018-12-05T11:54:41.540Z,32.73
2018-12-05T11:57:12.056Z,33.80
2018-12-05T11:59:42.670Z,32.63
2018-12-05T12:02:13.253Z,31.37
2018-12-05T12:04:43.870Z,33.73
2018-12-05T12:07:14.343Z,31.80
2018-12-05T12:09:44.963Z,33.83
2018-12-05T12:12:20.515Z,34.43
2018-12-05T12:14:51.082Z,33.93
2018-12-05T12:17:21.643Z,35.20
2018-12-05T12:19:52.069Z,32.70
2018-12-05T12:22:22.629Z,32.80
2018-12-05T12:24:53.174Z,35.67
2018-12-05T12:27:24.162Z,34.17
2018-12-05T12:29:54.675Z,35.03
2018-12-05T12:32:25.388Z,33.80
2018-12-05T12:34:55.935Z,33.57
2018-12-05T12:37:26.466Z,35.43
2018-12-05T12:39:57.009Z,35.27
2018-12-05T12:42:27.590Z,34.33
2018-12-05T12:44:58.098Z,35.53
2018-12-05T12:47:28.630Z,36.57
2018-12-05T12:49:59.228Z,36.53
2018-12-05T12:52:29.867Z,36.17
2018-12-05T12:55:00.388Z,35.43
2018-12-05T12:57:31.350Z,37.30
2018-12-05T13:00:01.930Z,36.67
2018-12-05T13:02:32.485Z,33.73
2018-12-05T13:05:02.969Z,33.47
2018-12-05T13:07:33.549Z,36.13
2018-12-05T13:10:04.096Z,35.00
2018-12-05T13:12:34.988Z,34.50
2018-12-05T13:15:05.872Z,34.27
2018-12-05T13:17:36.364Z,32.83
2018-12-05T13:20:07.471Z,33.23
2018-12-05T13:22:38.092Z,32.70
2018-12-05T13:25:08.626Z,32.73
2018-12-05T13:27:39.206Z,33.93
2018-12-05T13:30:09.754Z,34.20
2018-12-05T13:32:40.531Z,32.67
2018-12-05T13:35:11.077Z,28.50
2018-12-05T13:37:41.654Z,32.40
2018-12-05T13:40:12.394Z,31.70
2018-12-05T13:42:42.952Z,38.40
2018-12-05T13:45:13.473Z,35.07
2018-12-05T13:47:44.021Z,34.00
2018-12-05T13:50:14.646Z,35.47
2018-12-05T13:52:45.420Z,33.83
2018-12-05T13:55:16.051Z,36.87
2018-12-05T13:57:46.547Z,36.90
2018-12-05T14:00:17.125Z,39.93
2018-12-05T14:02:47.699Z,45.93
2018-12-05T14:05:18.143Z,61.33
2018-12-05T14:07:48.691Z,63.30
2018-12-05T14:10:19.177Z,88.20
2018-12-05T14:12:50.082Z,114.33
2018-12-05T14:15:20.488Z,111.83
2018-12-05T14:17:50.932Z,88.10
2018-12-05T14:20:21.496Z,32.00
2018-12-05T14:22:52.034Z,25.40
2018-12-05T14:25:22.646Z,25.73
2018-12-05T14:27:53.157Z,24.37
2018-12-05T14:30:23.668Z,24.43
2018-12-05T14:32:54.297Z,22.47
2018-12-05T14:35:24.755Z,23.13
2018-12-05T14:37:55.355Z,22.60
2018-12-05T14:40:25.869Z,21.17
2018-12-05T14:42:56.480Z,20.60
2018-12-05T14:45:27.031Z,20.10
2018-12-05T14:47:57.435Z,20.40
2018-12-05T14:50:28.025Z,21.70
2018-12-05T14:52:59.178Z,19.40
2018-12-05T14:55:29.634Z,18.60
2018-12-05T14:58:00.104Z,19.20
2018-12-05T15:00:30.630Z,17.60
2018-12-05T15:03:01.222Z,18.47
2018-12-05T15:05:31.582Z,16.87
2018-12-05T15:08:02.185Z,17.20
2018-12-05T15:10:33.602Z,17.13
2018-12-05T15:13:04.388Z,17.93
2018-12-05T15:15:34.801Z,17.30
2018-12-05T15:18:05.380Z,15.27
2018-12-05T15:20:36.014Z,16.67
2018-12-05T15:23:06.596Z,15.73
2018-12-05T15:25:37.139Z,17.23
2018-12-05T15:28:07.670Z,16.63
2018-12-05T15:30:38.401Z,16.27
2018-12-05T15:33:09.102Z,14.97
2018-12-05T15:35:39.644Z,16.00
2018-12-05T15:38:10.304Z,16.40
2018-12-05T15:40:40.780Z,15.40
2018-12-05T15:43:11.248Z,15.77
2018-12-05T15:45:41.809Z,17.50
2018-12-05T15:48:12.350Z,16.60
2018-12-05T15:50:42.803Z,22.40
2018-12-05T15:53:13.336Z,17.80
2018-12-05T15:55:43.870Z,22.67
2018-12-05T15:58:14.340Z,41.87
2018-12-05T16:00:44.893Z,37.47
2018-12-05T16:03:15.387Z,27.33
2018-12-05T16:05:45.958Z,26.43
2018-12-05T16:08:16.564Z,53.63
2018-12-05T16:10:47.081Z,38.30
2018-12-05T16:13:17.892Z,43.43
2018-12-05T16:15:48.452Z,39.93
2018-12-05T16:18:18.924Z,34.73
2018-12-05T16:20:49.529Z,30.87
2018-12-05T16:23:20.064Z,32.53
2018-12-05T16:25:50.521Z,30.17
2018-12-05T16:28:21.021Z,30.87
2018-12-05T16:30:51.527Z,22.97
2018-12-05T16:33:22.091Z,24.87
2018-12-05T16:35:52.672Z,24.27
2018-12-05T16:38:23.224Z,22.30
2018-12-05T16:40:53.767Z,20.53
2018-12-05T16:43:24.336Z,23.53
2018-12-05T16:45:54.893Z,22.30
2018-12-05T16:48:25.427Z,18.97
2018-12-05T16:50:55.987Z,21.00
2018-12-05T16:53:26.481Z,22.30
2018-12-05T16:55:57.047Z,16.53
2018-12-05T16:58:27.546Z,17.77
2018-12-05T17:00:58.081Z,17.47
2018-12-05T17:03:28.717Z,14.40
2018-12-05T17:05:59.254Z,11.27
2018-12-05T17:08:29.813Z,11.70
2018-12-05T17:11:00.395Z,10.53
2018-12-05T17:13:34.763Z,12.47
2018-12-05T17:16:05.304Z,16.90
2018-12-05T17:18:35.880Z,13.87
2018-12-05T17:21:06.645Z,15.13
2018-12-05T17:23:37.195Z,11.63
2018-12-05T17:26:07.742Z,15.30
2018-12-05T17:28:38.271Z,15.23
2018-12-05T17:31:08.775Z,10.83
2018-12-05T17:33:39.338Z,15.30
2018-12-05T17:36:09.900Z,17.90
2018-12-05T17:38:40.361Z,20.97
2018-12-05T17:41:10.911Z,15.70
2018-12-05T17:43:42.517Z,17.50
2018-12-05T17:46:13.219Z,10.57
2018-12-05T17:48:43.730Z,13.13
2018-12-05T17:51:14.242Z,12.80
2018-12-05T17:53:45.934Z,11.03
2018-12-05T17:56:16.469Z,12.20
2018-12-05T17:58:46.997Z,10.67
2018-12-05T18:01:17.592Z,13.33
2018-12-05T18:03:48.078Z,19.30
2018-12-05T18:06:18.632Z,13.93
2018-12-05T18:08:49.116Z,10.73
2018-12-05T18:11:19.648Z,9.73
2018-12-05T18:13:50.328Z,9.87
2018-12-05T18:16:20.906Z,10.27
2018-12-05T18:18:51.425Z,9.20
2018-12-05T18:21:21.917Z,8.70
2018-12-05T18:23:52.364Z,8.87
2018-12-05T18:26:22.904Z,8.77
2018-12-05T18:28:53.536Z,8.47
2018-12-05T18:31:24.038Z,9.27
2018-12-05T18:33:54.789Z,10.10
2018-12-05T18:36:25.330Z,10.00
2018-12-05T18:38:55.941Z,8.10
2018-12-05T18:41:26.440Z,8.67
2018-12-05T18:43:57.400Z,7.97
2018-12-05T18:46:27.940Z,7.77
2018-12-05T18:48:58.481Z,8.10
2018-12-05T18:51:29.096Z,8.27
2018-12-05T18:53:59.620Z,7.73
2018-12-05T18:56:30.118Z,7.80
2018-12-05T18:59:00.557Z,8.43
2018-12-05T19:01:31.033Z,9.07
2018-12-05T19:04:01.482Z,9.43
2018-12-05T19:06:32.099Z,8.50
2018-12-05T19:09:02.733Z,10.30
2018-12-05T19:11:34.730Z,9.50
2018-12-05T19:14:10.376Z,10.47
2018-12-05T19:16:40.997Z,8.67
2018-12-05T19:19:11.565Z,8.00
2018-12-05T19:21:42.107Z,8.43
2018-12-05T19:24:12.636Z,9.33
2018-12-05T19:26:43.418Z,10.07
2018-12-05T19:29:13.888Z,8.00
2018-12-05T19:31:44.472Z,7.83
2018-12-05T19:34:16.003Z,8.80
2018-12-05T19:36:46.728Z,8.63
2018-12-05T19:39:17.241Z,11.00
2018-12-05T19:41:47.806Z,8.13
2018-12-05T19:44:18.308Z,9.90
2018-12-05T19:46:48.803Z,9.00
2018-12-05T19:49:19.443Z,9.87
2018-12-05T19:51:49.924Z,8.50
2018-12-05T19:54:20.766Z,9.03
2018-12-05T19:56:51.431Z,6.87
2018-12-05T19:59:21.968Z,6.67
2018-12-05T20:01:52.540Z,6.93
2018-12-05T20:04:23.047Z,7.70
2018-12-05T20:06:53.528Z,7.17
2018-12-05T20:09:24.044Z,7.27
2018-12-05T20:11:54.562Z,7.23
2018-12-05T20:14:30.213Z,7.40
2018-12-05T20:17:00.764Z,7.37
2018-12-05T20:19:31.322Z,7.50
2018-12-05T20:22:01.809Z,8.13
2018-12-05T20:24:32.313Z,8.20
2018-12-05T20:27:02.832Z,7.93
2018-12-05T20:29:33.259Z,8.47
2018-12-05T20:32:04.397Z,8.23
2018-12-05T20:34:36.729Z,8.50
2018-12-05T20:37:07.224Z,7.63
2018-12-05T20:39:37.657Z,7.93
2018-12-05T20:42:08.105Z,7.93
2018-12-05T20:44:38.507Z,8.97
2018-12-05T20:47:09.067Z,8.67
2018-12-05T20:49:39.422Z,8.93
2018-12-05T20:52:09.849Z,9.00
2018-12-05T20:54:41.501Z,9.57
2018-12-05T20:57:11.920Z,8.40
2018-12-05T20:59:43.130Z,7.80
2018-12-05T21:02:13.755Z,8.77
2018-12-05T21:04:44.347Z,8.60
2018-12-05T21:07:14.812Z,8.10
2018-12-05T21:09:45.212Z,9.13
2018-12-05T21:12:15.684Z,6.93
2018-12-05T21:14:46.318Z,8.07
2018-12-05T21:17:16.737Z,7.63
2018-12-05T21:19:47.241Z,8.20
2018-12-05T21:22:17.693Z,8.00
2018-12-05T21:24:48.168Z,8.17
2018-12-05T21:27:18.691Z,7.93
2018-12-05T21:29:49.193Z,7.80
2018-12-05T21:32:19.745Z,6.37
2018-12-05T21:34:50.286Z,7.40
2018-12-05T21:37:20.702Z,7.40
2018-12-05T21:39:51.215Z,7.27
2018-12-05T21:42:22.037Z,7.90
2018-12-05T21:44:52.559Z,7.43
2018-12-05T21:47:22.998Z,7.90
2018-12-05T21:49:53.447Z,7.13
2018-12-05T21:52:24.029Z,7.47
2018-12-05T21:54:56.634Z,7.17
2018-12-05T21:57:27.321Z,8.07
2018-12-05T21:59:57.825Z,8.03
2018-12-05T22:02:29.297Z,8.13
2018-12-05T22:04:59.729Z,8.20
2018-12-05T22:07:30.177Z,7.97
2018-12-05T22:10:00.627Z,7.00
2018-12-05T22:12:31.041Z,7.57
2018-12-05T22:15:05.251Z,7.17
2018-12-05T22:17:35.911Z,6.97
2018-12-05T22:20:07.421Z,8.63
2018-12-05T22:22:37.888Z,7.47
2018-12-05T22:25:08.409Z,7.83
2018-12-05T22:27:38.942Z,6.93
2018-12-05T22:30:10.072Z,6.53
2018-12-05T22:32:40.543Z,6.47
2018-12-05T22:35:10.537Z,6.80
2018-12-05T22:37:40.987Z,6.57
2018-12-05T22:40:11.500Z,6.93
2018-12-05T22:42:41.991Z,7.00
2018-12-05T22:45:13.158Z,6.77
2018-12-05T22:47:43.619Z,6.70
2018-12-05T22:50:13.996Z,6.33
2018-12-05T22:52:44.501Z,6.97
2018-12-05T22:55:15.140Z,6.13
2018-12-05T22:57:45.636Z,6.30
2018-12-05T23:00:23.413Z,5.97
2018-12-05T23:02:55.956Z,5.70
2018-12-05T23:05:26.446Z,5.70
2018-12-05T23:07:56.956Z,5.57
2018-12-05T23:10:27.396Z,6.27
2018-12-05T23:12:57.874Z,5.70
2018-12-05T23:15:28.824Z,5.20
2018-12-05T23:17:59.349Z,5.30
2018-12-05T23:20:29.858Z,5.00
2018-12-05T23:23:00.283Z,4.73
2018-12-05T23:25:30.807Z,5.10
2018-12-05T23:28:01.277Z,4.70
2018-12-05T23:34:02.809Z,4.53
2018-12-05T23:36:33.303Z,4.80
2018-12-05T23:39:04.860Z,4.70
2018-12-05T23:41:35.359Z,5.23
2018-12-05T23:44:05.815Z,4.50
2018-12-05T23:46:36.349Z,4.37
2018-12-05T23:49:06.761Z,4.70
2018-12-05T23:51:37.196Z,5.07
2018-12-05T23:54:07.640Z,4.90
2018-12-05T23:56:38.074Z,4.90
2018-12-05T23:59:08.534Z,5.10
